createdAt,value
2022-09-28T00:01:25.816Z,99815.78
2022-09-28T00:03:54.690Z,99812.94
2022-09-28T00:06:27.220Z,99811.38
2022-09-28T00:08:54.516Z,99814.00
2022-09-28T00:11:23.115Z,99812.88
2022-09-28T00:13:52.809Z,99802.31
2022-09-28T00:16:21.899Z,99810.13
2022-09-28T00:18:51.043Z,99811.59
2022-09-28T00:21:19.833Z,99807.88
2022-09-28T00:24:04.710Z,99814.84
2022-09-28T00:26:33.581Z,99820.84
2022-09-28T00:29:02.010Z,99812.44
2022-09-28T00:31:32.848Z,99812.09
2022-09-28T00:34:01.531Z,99821.47
2022-09-28T00:36:30.045Z,99817.53
2022-09-28T00:38:57.166Z,99815.41
2022-09-28T00:41:28.274Z,99811.09
2022-09-28T00:44:26.547Z,99812.56
2022-09-28T00:47:24.047Z,99805.59
2022-09-28T00:50:20.567Z,99807.00
2022-09-28T00:52:53.857Z,99801.72
2022-09-28T00:55:45.161Z,99805.31
2022-09-28T00:58:18.032Z,99802.66
2022-09-28T01:00:44.490Z,99805.19
2022-09-28T01:03:11.067Z,99794.88
2022-09-28T01:05:39.899Z,99794.41
2022-09-28T01:08:07.413Z,99798.63
2022-09-28T01:10:34.521Z,99793.69
2022-09-28T01:13:00.996Z,99796.81
2022-09-28T01:15:29.617Z,99779.88
2022-09-28T01:18:34.729Z,99788.63
2022-09-28T01:21:16.664Z,99785.59
2022-09-28T01:24:20.229Z,99783.81
2022-09-28T01:26:51.834Z,99781.50
2022-09-28T01:29:37.069Z,99787.44
2022-09-28T01:32:17.156Z,99786.78
2022-09-28T01:34:55.525Z,99779.22
2022-09-28T01:37:30.298Z,99783.03
2022-09-28T01:39:58.685Z,99788.06
2022-09-28T01:42:31.353Z,99785.88
2022-09-28T01:45:04.616Z,99787.59
2022-09-28T01:47:36.206Z,99789.28
2022-09-28T01:50:13.306Z,99785.19
2022-09-28T01:52:59.370Z,99782.75
2022-09-28T01:55:31.414Z,99781.06
2022-09-28T01:58:24.709Z,99782.88
2022-09-28T02:00:58.038Z,99781.19
2022-09-28T02:03:29.896Z,99789.09
2022-09-28T02:06:00.919Z,99785.72
2022-09-28T02:08:35.025Z,99778.66
2022-09-28T02:11:05.349Z,99788.03
2022-09-28T02:13:37.526Z,99784.66
2022-09-28T02:16:14.332Z,99788.13
2022-09-28T02:18:41.633Z,99789.38
2022-09-28T02:21:17.322Z,99783.38
2022-09-28T02:23:54.224Z,99777.28
2022-09-28T02:26:24.731Z,99787.72
2022-09-28T02:28:51.180Z,99789.16
2022-09-28T02:31:17.995Z,99784.84
2022-09-28T02:33:46.251Z,99789.06
2022-09-28T02:36:12.973Z,99789.91
2022-09-28T02:38:39.648Z,99789.91
2022-09-28T02:41:19.926Z,99784.00
2022-09-28T02:44:06.721Z,99781.47
2022-09-28T02:46:38.899Z,99790.22
2022-09-28T02:49:29.169Z,99788.66
2022-09-28T02:52:04.883Z,99788.88
2022-09-28T02:54:49.412Z,99798.06
2022-09-28T02:57:27.378Z,99787.50
2022-09-28T03:00:10.469Z,99786.66
2022-09-28T03:02:46.052Z,99804.69
2022-09-28T03:05:31.830Z,99813.44
2022-09-28T03:07:59.972Z,99806.47
2022-09-28T03:10:41.745Z,99814.06
2022-09-28T03:13:09.602Z,99816.91
2022-09-28T03:15:36.871Z,99809.53
2022-09-28T03:18:03.498Z,99810.13
2022-09-28T03:20:31.636Z,99815.19
2022-09-28T03:23:20.178Z,99811.19
2022-09-28T03:25:47.722Z,99816.00
2022-09-28T03:28:14.185Z,99818.22
2022-09-28T03:30:41.621Z,99811.47
2022-09-28T03:33:08.038Z,99817.59
2022-09-28T03:35:34.747Z,99819.50
2022-09-28T03:38:01.288Z,99813.03
2022-09-28T03:40:27.779Z,99815.69
2022-09-28T03:42:54.338Z,99815.69
2022-09-28T03:45:20.771Z,99809.56
2022-09-28T03:47:48.831Z,99807.47
2022-09-28T03:50:15.756Z,99808.94
2022-09-28T03:52:42.493Z,99805.78
2022-09-28T03:55:09.693Z,99815.28
2022-09-28T03:57:36.189Z,99819.72
2022-09-28T04:00:04.835Z,99812.22
2022-09-28T04:02:31.488Z,99806.56
2022-09-28T04:04:57.972Z,99810.88
2022-09-28T04:07:26.964Z,99814.47
2022-09-28T04:09:56.682Z,99808.38
2022-09-28T04:12:23.047Z,99812.16
2022-09-28T04:14:52.584Z,99808.59
2022-09-28T04:17:21.534Z,99809.44
2022-09-28T04:19:48.069Z,99806.06
2022-09-28T04:22:14.781Z,99811.56
2022-09-28T04:24:43.603Z,99815.88
2022-09-28T04:27:28.443Z,99817.34
2022-09-28T04:29:54.877Z,99825.47
2022-09-28T04:32:22.097Z,99822.00
2022-09-28T04:34:50.802Z,99819.16
2022-09-28T04:37:17.247Z,99816.19
2022-09-28T04:39:47.577Z,99814.50
2022-09-28T04:42:17.725Z,99815.13
2022-09-28T04:44:44.381Z,99818.19
2022-09-28T04:47:11.001Z,99814.91
2022-09-28T04:49:38.279Z,99802.16
2022-09-28T04:52:05.971Z,99808.16
2022-09-28T04:54:32.347Z,99809.97
2022-09-28T04:56:58.966Z,99812.72
2022-09-28T04:59:25.994Z,99802.28
2022-09-28T05:01:54.069Z,99807.75
2022-09-28T05:04:25.650Z,99816.41
2022-09-28T05:06:52.693Z,99822.63
2022-09-28T05:09:20.252Z,99813.25
2022-09-28T05:11:49.663Z,99813.03
2022-09-28T05:14:16.725Z,99827.91
2022-09-28T05:16:44.725Z,99827.19
2022-09-28T05:19:12.461Z,99833.41
2022-09-28T05:21:39.081Z,99829.91
2022-09-28T05:24:07.534Z,99832.97
2022-09-28T05:26:34.646Z,99836.25
2022-09-28T05:29:01.100Z,99844.25
2022-09-28T05:31:27.961Z,99830.00
2022-09-28T05:33:54.457Z,99837.28
2022-09-28T05:36:21.121Z,99839.91
2022-09-28T05:38:47.668Z,99841.81
2022-09-28T05:41:14.234Z,99839.28
2022-09-28T05:43:40.894Z,99840.00
2022-09-28T05:46:08.150Z,99834.09
2022-09-28T05:48:34.725Z,99837.38
2022-09-28T05:51:01.741Z,99827.25
2022-09-28T05:53:28.350Z,99832.97
2022-09-28T05:55:58.658Z,99833.06
2022-09-28T05:58:25.314Z,99834.97
2022-09-28T06:00:56.326Z,99835.19
2022-09-28T06:03:23.094Z,99839.50
2022-09-28T06:05:52.815Z,99831.19
2022-09-28T06:08:22.619Z,99825.16
2022-09-28T06:10:49.585Z,99827.81
2022-09-28T06:13:16.048Z,99835.50
2022-09-28T06:15:43.600Z,99833.19
2022-09-28T06:18:14.779Z,99832.88
2022-09-28T06:20:42.372Z,99830.22
2022-09-28T06:23:11.001Z,99833.59
2022-09-28T06:25:38.182Z,99832.88
2022-09-28T06:28:07.716Z,99835.19
2022-09-28T06:30:38.090Z,99838.66
2022-09-28T06:33:06.106Z,99836.97
2022-09-28T06:35:32.925Z,99846.47
2022-09-28T06:38:00.562Z,99851.09
2022-09-28T06:40:27.894Z,99852.44
2022-09-28T06:42:56.954Z,99854.03
2022-09-28T06:45:25.566Z,99859.94
2022-09-28T06:47:59.664Z,99862.25
2022-09-28T06:50:28.214Z,99856.75
2022-09-28T06:52:55.013Z,99863.16
2022-09-28T06:55:22.024Z,99868.16
2022-09-28T06:57:58.027Z,99869.28
2022-09-28T07:00:24.617Z,99866.84
2022-09-28T07:02:51.327Z,99874.59
2022-09-28T07:05:22.130Z,99874.34
2022-09-28T07:07:48.923Z,99886.06
2022-09-28T07:10:15.396Z,99885.06
2022-09-28T07:12:41.850Z,99885.63
2022-09-28T07:15:09.067Z,99877.84
2022-09-28T07:17:50.328Z,99888.81
2022-09-28T07:20:22.653Z,99885.69
2022-09-28T07:22:53.573Z,99894.00
2022-09-28T07:25:20.327Z,99886.31
2022-09-28T07:27:47.118Z,99890.53
2022-09-28T07:30:14.370Z,99895.47
2022-09-28T07:32:41.017Z,99893.66
2022-09-28T07:35:10.680Z,99898.47
2022-09-28T07:37:37.775Z,99903.09
2022-09-28T07:40:24.042Z,99901.06
2022-09-28T07:42:51.190Z,99907.81
2022-09-28T07:45:18.107Z,99905.88
2022-09-28T07:47:47.516Z,99908.41
2022-09-28T07:50:13.952Z,99912.28
2022-09-28T07:52:40.362Z,99898.56
2022-09-28T07:55:07.736Z,99909.41
2022-09-28T07:57:34.709Z,99905.56
2022-09-28T08:00:02.227Z,99913.63
2022-09-28T08:02:28.636Z,99916.03
2022-09-28T08:04:55.235Z,99913.28
2022-09-28T08:07:24.283Z,99919.03
2022-09-28T08:09:51.081Z,99924.13
2022-09-28T08:12:19.824Z,99914.88
2022-09-28T08:14:47.061Z,99923.88
2022-09-28T08:17:13.657Z,99920.38
2022-09-28T08:19:58.843Z,99921.00
2022-09-28T08:22:25.283Z,99926.28
2022-09-28T08:24:52.211Z,99924.94
2022-09-28T08:27:18.919Z,99929.63
2022-09-28T08:29:45.609Z,99932.41
2022-09-28T08:32:12.130Z,99927.63
2022-09-28T08:34:40.617Z,99927.72
2022-09-28T08:37:09.192Z,99927.22
2022-09-28T08:39:36.589Z,99936.78
2022-09-28T08:42:08.923Z,99934.00
2022-09-28T08:47:46.224Z,99948.66
2022-09-28T08:50:21.789Z,99949.63
2022-09-28T08:52:54.973Z,99942.13
2022-09-28T08:55:31.338Z,99944.53
2022-09-28T08:58:06.533Z,99950.69
2022-09-28T09:00:39.724Z,99959.44
2022-09-28T09:03:12.023Z,99957.38
2022-09-28T09:06:08.530Z,99967.13
2022-09-28T09:08:50.189Z,99963.41
2022-09-28T09:11:51.665Z,99973.63
2022-09-28T09:14:34.736Z,99974.59
2022-09-28T09:17:38.897Z,99978.66
2022-09-28T09:20:29.787Z,99978.41
2022-09-28T09:23:03.052Z,99975.50
2022-09-28T09:25:38.377Z,99977.78
2022-09-28T09:28:17.992Z,99974.03
2022-09-28T09:31:03.027Z,99983.78
2022-09-28T09:33:52.011Z,99983.91
2022-09-28T09:36:53.006Z,99988.25
2022-09-28T09:39:53.984Z,99983.28
2022-09-28T09:42:47.338Z,99981.09
2022-09-28T09:45:47.983Z,99982.66
2022-09-28T09:48:27.216Z,99975.41
2022-09-28T09:51:00.117Z,99978.31
2022-09-28T09:53:38.609Z,99984.53
2022-09-28T09:56:14.718Z,99978.38
2022-09-28T09:58:48.927Z,99980.06
2022-09-28T10:01:20.121Z,99974.09
2022-09-28T10:03:50.850Z,99980.25
2022-09-28T10:06:36.673Z,99981.88
2022-09-28T10:09:09.716Z,99974.50
2022-09-28T10:11:45.196Z,99974.94
2022-09-28T10:14:23.326Z,99977.94
2022-09-28T10:16:53.063Z,99976.50
2022-09-28T10:19:32.296Z,99973.22
2022-09-28T10:22:02.991Z,99976.72
2022-09-28T10:24:34.341Z,99975.25
2022-09-28T10:27:06.109Z,99978.28
2022-09-28T10:29:42.293Z,99980.59
2022-09-28T10:32:20.556Z,99987.22
2022-09-28T10:34:50.279Z,99995.81
2022-09-28T10:37:20.498Z,99979.75
2022-09-28T10:39:53.728Z,99985.78
2022-09-28T10:42:26.006Z,99982.47
2022-09-28T10:45:22.194Z,99982.38
2022-09-28T10:47:52.580Z,99982.31
2022-09-28T10:50:22.695Z,99986.56
2022-09-28T10:52:50.499Z,99975.09
2022-09-28T10:55:25.401Z,99989.53
2022-09-28T10:57:52.921Z,99986.88
2022-09-28T11:00:39.036Z,99985.59
2022-09-28T11:03:06.238Z,99985.03
2022-09-28T11:05:32.989Z,99989.44
2022-09-28T11:08:05.597Z,100002.69
2022-09-28T11:10:33.051Z,100005.19
2022-09-28T11:13:00.585Z,100004.41
2022-09-28T11:15:32.956Z,100003.84
2022-09-28T11:18:32.351Z,100000.44
2022-09-28T11:21:21.664Z,99999.72
2022-09-28T11:23:58.820Z,100007.94
2022-09-28T11:26:25.523Z,100017.00
2022-09-28T11:28:53.040Z,100007.63
2022-09-28T11:31:30.132Z,100005.06
2022-09-28T11:34:07.133Z,100004.38
2022-09-28T11:36:46.348Z,100008.47
2022-09-28T11:39:27.290Z,100008.34
2022-09-28T11:42:06.046Z,100009.19
2022-09-28T11:44:33.340Z,100017.75
2022-09-28T11:47:20.426Z,100012.59
2022-09-28T11:49:50.773Z,100013.78
2022-09-28T11:52:27.857Z,100013.44
2022-09-28T11:55:04.582Z,100018.59
2022-09-28T11:57:36.645Z,100026.84
2022-09-28T12:00:24.542Z,100012.19
2022-09-28T12:03:15.410Z,100009.44
2022-09-28T12:06:02.047Z,100011.00
2022-09-28T12:08:34.731Z,100011.28
2022-09-28T12:11:10.898Z,100011.38
2022-09-28T12:13:44.647Z,100010.59
2022-09-28T12:16:38.426Z,99999.38
2022-09-28T12:19:15.984Z,100012.59
2022-09-28T12:21:53.296Z,100011.19
2022-09-28T12:24:42.269Z,100009.66
2022-09-28T12:27:21.002Z,100004.59
2022-09-28T12:30:20.229Z,100009.66
2022-09-28T12:33:04.432Z,100001.94
2022-09-28T12:35:52.625Z,99994.53
2022-09-28T12:39:17.734Z,100001.00
2022-09-28T12:42:11.948Z,99992.00
2022-09-28T12:44:59.958Z,99995.66
2022-09-28T12:48:10.385Z,100004.91
2022-09-28T12:50:57.721Z,100000.03
2022-09-28T12:53:51.285Z,99995.97
2022-09-28T12:56:36.065Z,99997.78
2022-09-28T12:59:29.211Z,99993.06
2022-09-28T13:02:28.526Z,99989.28
2022-09-28T13:05:22.787Z,99990.25
2022-09-28T13:07:59.531Z,99982.81
2022-09-28T13:10:36.033Z,99989.69
2022-09-28T13:13:10.826Z,99992.47
2022-09-28T13:15:49.090Z,99993.31
2022-09-28T13:18:23.374Z,99994.84
2022-09-28T13:20:59.172Z,99994.00
2022-09-28T13:23:29.555Z,100000.31
2022-09-28T13:26:37.153Z,100000.03
2022-09-28T13:29:11.113Z,100002.56
2022-09-28T13:31:50.258Z,100004.09
2022-09-28T13:34:25.345Z,100000.47
2022-09-28T13:37:25.669Z,100014.34
2022-09-28T13:39:59.434Z,100009.03
2022-09-28T13:42:51.627Z,100012.78
2022-09-28T13:45:21.102Z,100000.47
2022-09-28T13:48:00.000Z,100001.44
2022-09-28T13:51:00.982Z,100003.97
2022-09-28T13:54:15.709Z,100001.59
2022-09-28T13:57:02.889Z,100008.72
2022-09-28T13:59:32.614Z,100009.69
2022-09-28T14:02:06.749Z,100010.78
2022-09-28T14:05:06.393Z,100013.44
2022-09-28T14:07:35.728Z,100010.44
2022-09-28T14:10:25.792Z,100010.97
2022-09-28T14:12:53.362Z,100012.53
2022-09-28T14:15:29.079Z,100016.69
2022-09-28T14:18:29.805Z,100015.78
2022-09-28T14:21:02.533Z,100021.63
2022-09-28T14:23:46.473Z,100014.84
2022-09-28T14:26:41.513Z,100028.75
2022-09-28T14:29:36.414Z,100029.50
2022-09-28T14:32:22.586Z,100039.63
2022-09-28T14:34:58.298Z,100035.28
2022-09-28T14:37:50.106Z,100042.00
2022-09-28T14:40:38.189Z,100040.59
2022-09-28T14:43:42.521Z,100035.41
2022-09-28T14:46:12.398Z,100033.53
2022-09-28T14:48:52.792Z,100035.66
2022-09-28T14:51:26.097Z,100035.53
2022-09-28T14:53:54.693Z,100043.63
2022-09-28T14:56:22.005Z,100039.63
2022-09-28T14:58:56.838Z,100028.03
2022-09-28T15:01:25.010Z,100033.91
2022-09-28T15:03:56.923Z,100036.34
2022-09-28T15:06:24.639Z,100040.19
2022-09-28T15:08:51.377Z,100047.09
2022-09-28T15:11:27.317Z,100046.63
2022-09-28T15:14:06.489Z,100052.50
2022-09-28T15:16:33.674Z,100051.53
2022-09-28T15:19:23.584Z,100051.91
2022-09-28T15:21:51.173Z,100061.56
2022-09-28T15:24:34.697Z,100062.78
2022-09-28T15:27:04.080Z,100069.59
2022-09-28T15:29:33.178Z,100082.72
2022-09-28T15:31:59.740Z,100101.69
2022-09-28T15:34:46.801Z,100104.38
2022-09-28T15:37:16.214Z,100092.22
2022-09-28T15:39:44.318Z,100087.28
2022-09-28T15:42:11.146Z,100087.16
2022-09-28T15:44:38.590Z,100084.59
2022-09-28T15:47:15.282Z,100089.56
2022-09-28T15:49:58.583Z,100094.97
2022-09-28T15:52:29.874Z,100100.72
2022-09-28T15:54:57.411Z,100102.41
2022-09-28T15:57:40.039Z,100095.06
2022-09-28T16:00:27.199Z,100087.13
2022-09-28T16:03:17.142Z,100095.97
2022-09-28T16:05:58.935Z,100091.03
2022-09-28T16:08:40.833Z,100092.97
2022-09-28T16:11:26.199Z,100088.63
2022-09-28T16:14:08.856Z,100090.78
2022-09-28T16:16:37.703Z,100095.63
2022-09-28T16:19:05.687Z,100095.50
2022-09-28T16:21:43.156Z,100101.03
2022-09-28T16:24:20.225Z,100096.28
2022-09-28T16:26:46.883Z,100098.69
2022-09-28T16:29:42.835Z,100098.91
2022-09-28T16:32:37.525Z,100094.66
2022-09-28T16:35:13.077Z,100098.28
2022-09-28T16:37:43.796Z,100098.41
2022-09-28T16:40:11.679Z,100096.09
2022-09-28T16:42:40.468Z,100102.34
2022-09-28T16:45:08.203Z,100100.19
2022-09-28T16:47:34.776Z,100102.44
2022-09-28T16:50:06.704Z,100093.41
2022-09-28T16:52:51.821Z,100099.63
2022-09-28T16:55:39.463Z,100098.31
2022-09-28T16:58:06.896Z,100111.31
2022-09-28T17:00:33.433Z,100110.38
2022-09-28T17:03:00.089Z,100103.13
2022-09-28T17:05:26.824Z,100109.88
2022-09-28T17:08:01.913Z,100111.56
2022-09-28T17:11:09.778Z,100109.88
2022-09-28T17:13:33.851Z,100110.72
2022-09-28T17:16:02.686Z,100106.38
2022-09-28T17:18:31.841Z,100102.66
2022-09-28T17:21:03.159Z,100105.56
2022-09-28T17:23:30.301Z,100119.06
2022-09-28T17:25:59.064Z,100117.75
2022-09-28T17:28:28.436Z,100119.81
2022-09-28T17:30:54.858Z,100129.44
2022-09-28T17:33:21.528Z,100122.03
2022-09-28T17:35:51.042Z,100130.56
2022-09-28T17:38:17.517Z,100127.81
2022-09-28T17:40:45.549Z,100131.19
2022-09-28T17:43:12.060Z,100138.47
2022-09-28T17:45:41.039Z,100137.63
2022-09-28T17:48:15.643Z,100134.81
2022-09-28T17:50:46.245Z,100133.59
2022-09-28T17:53:13.865Z,100138.63
2022-09-28T17:55:40.731Z,100136.97
2022-09-28T17:58:22.122Z,100142.97
2022-09-28T18:00:51.233Z,100134.31
2022-09-28T18:03:20.616Z,100126.44
2022-09-28T18:05:52.778Z,100134.50
2022-09-28T18:08:21.138Z,100132.81
2022-09-28T18:10:47.840Z,100131.97
2022-09-28T18:13:14.614Z,100126.81
2022-09-28T18:15:41.737Z,100124.88
2022-09-28T18:18:12.884Z,100118.97
2022-09-28T18:20:39.464Z,100117.28
2022-09-28T18:23:06.034Z,100115.72
2022-09-28T18:25:32.619Z,100120.06
2022-09-28T18:27:59.974Z,100115.38
2022-09-28T18:30:27.597Z,100122.22
2022-09-28T18:32:54.173Z,100109.34
2022-09-28T18:35:23.172Z,100125.00
2022-09-28T18:37:52.654Z,100116.69
2022-09-28T18:40:20.003Z,100118.59
2022-09-28T18:42:46.470Z,100113.66
2022-09-28T18:45:13.313Z,100118.72
2022-09-28T18:47:40.130Z,100120.63
2022-09-28T18:50:07.278Z,100115.56
2022-09-28T18:52:38.076Z,100114.72
2022-09-28T18:55:06.147Z,100120.88
2022-09-28T18:57:35.665Z,100116.38
2022-09-28T19:00:05.566Z,100122.28
2022-09-28T19:02:32.275Z,100119.16
2022-09-28T19:05:00.964Z,100119.25
2022-09-28T19:07:27.861Z,100110.22
2022-09-28T19:09:54.450Z,100125.97
2022-09-28T19:12:21.238Z,100099.56
2022-09-28T19:14:47.767Z,100115.81
2022-09-28T19:17:14.245Z,100125.38
2022-09-28T19:19:42.647Z,100124.41
2022-09-28T19:22:09.292Z,100126.28
2022-09-28T19:24:35.887Z,100118.09
2022-09-28T19:27:02.338Z,100137.56
2022-09-28T19:29:29.424Z,100123.84
2022-09-28T19:31:57.056Z,100123.34
2022-09-28T19:34:26.886Z,100130.31
2022-09-28T19:36:53.451Z,100117.75
2022-09-28T19:39:20.168Z,100140.50
2022-09-28T19:41:51.229Z,100127.22
2022-09-28T19:44:27.742Z,100138.75
2022-09-28T19:47:14.588Z,100139.94
2022-09-28T19:49:41.331Z,100139.97
2022-09-28T19:52:16.610Z,100139.81
2022-09-28T19:54:45.258Z,100143.47
2022-09-28T19:57:14.439Z,100147.19
2022-09-28T19:59:41.073Z,100150.78
2022-09-28T20:02:10.005Z,100148.47
2022-09-28T20:04:36.669Z,100147.72
2022-09-28T20:07:04.326Z,100148.19
2022-09-28T20:09:32.224Z,100152.94
2022-09-28T20:11:58.868Z,100159.28
2022-09-28T20:14:32.876Z,100160.34
2022-09-28T20:17:03.414Z,100163.53
2022-09-28T20:19:30.064Z,100156.47
2022-09-28T20:21:59.395Z,100173.38
2022-09-28T20:24:26.237Z,100177.28
2022-09-28T20:26:52.826Z,100173.16
2022-09-28T20:29:20.756Z,100177.91
2022-09-28T20:31:47.314Z,100171.22
2022-09-28T20:34:13.920Z,100178.09
2022-09-28T20:36:41.665Z,100182.22
2022-09-28T20:39:12.889Z,100190.97
2022-09-28T20:41:39.793Z,100190.97
2022-09-28T20:44:06.931Z,100193.69
2022-09-28T20:46:37.192Z,100198.22
2022-09-28T20:49:05.153Z,100187.97
2022-09-28T20:51:32.045Z,100185.00
2022-09-28T20:53:59.140Z,100189.34
2022-09-28T20:56:31.313Z,100195.69
2022-09-28T20:58:57.748Z,100185.44
2022-09-28T21:01:27.111Z,100206.13
2022-09-28T21:03:56.861Z,100198.72
2022-09-28T21:06:27.060Z,100201.66
2022-09-28T21:08:53.704Z,100190.91
2022-09-28T21:11:22.691Z,100197.34
2022-09-28T21:13:52.958Z,100199.44
2022-09-28T21:16:22.685Z,100203.03
2022-09-28T21:18:51.855Z,100193.63
2022-09-28T21:21:20.499Z,100202.69
2022-09-28T21:23:47.007Z,100196.88
2022-09-28T21:26:18.830Z,100204.31
2022-09-28T21:28:45.932Z,100202.63
2022-09-28T21:31:13.949Z,100213.84
2022-09-28T21:33:40.346Z,100209.53
2022-09-28T21:36:07.849Z,100220.72
2022-09-28T21:38:34.617Z,100216.00
2022-09-28T21:41:01.724Z,100216.66
2022-09-28T21:43:29.914Z,100217.59
2022-09-28T21:45:56.726Z,100215.06
2022-09-28T21:48:24.963Z,100214.97
2022-09-28T21:51:07.756Z,100218.28
2022-09-28T21:53:36.213Z,100219.13
2022-09-28T21:56:04.254Z,100212.91
2022-09-28T21:58:33.496Z,100215.53
2022-09-28T22:01:22.127Z,100222.72
2022-09-28T22:03:53.992Z,100228.91
2022-09-28T22:06:22.705Z,100227.78
2022-09-28T22:08:50.439Z,100231.16
2022-09-28T22:11:21.151Z,100220.81
2022-09-28T22:13:50.297Z,100229.56
2022-09-28T22:16:19.061Z,100228.91
2022-09-28T22:18:46.031Z,100219.38
2022-09-28T22:21:27.279Z,100222.97
2022-09-28T22:23:54.080Z,100226.34
2022-09-28T22:26:23.745Z,100224.88
2022-09-28T22:28:55.999Z,100230.16
2022-09-28T22:31:25.709Z,100220.63
2022-09-28T22:33:52.926Z,100232.78
2022-09-28T22:36:22.234Z,100224.88
2022-09-28T22:38:52.080Z,100221.69
2022-09-28T22:41:22.590Z,100228.00
2022-09-28T22:43:50.856Z,100234.41
2022-09-28T22:46:20.125Z,100240.84
2022-09-28T22:48:52.559Z,100241.88
2022-09-28T22:51:23.031Z,100242.91
2022-09-28T22:53:53.098Z,100236.16
2022-09-28T22:56:19.980Z,100235.50
2022-09-28T22:58:46.767Z,100238.97
2022-09-28T23:01:24.894Z,100246.03
2022-09-28T23:03:52.865Z,100240.13
2022-09-28T23:06:35.221Z,100247.84
2022-09-28T23:09:01.788Z,100256.19
2022-09-28T23:11:29.304Z,100246.13
2022-09-28T23:13:58.248Z,100255.75
2022-09-28T23:16:26.631Z,100261.22
2022-09-28T23:18:54.814Z,100248.03
2022-09-28T23:21:25.131Z,100255.09
2022-09-28T23:23:57.217Z,100251.63
2022-09-28T23:26:27.033Z,100244.09
2022-09-28T23:28:54.756Z,100252.66
2022-09-28T23:31:32.308Z,100245.03
2022-09-28T23:34:04.862Z,100253.22
2022-09-28T23:36:32.014Z,100262.63
2022-09-28T23:38:59.037Z,100255.66
2022-09-28T23:41:25.391Z,100254.81
2022-09-28T23:43:51.909Z,100259.34
2022-09-28T23:46:21.364Z,100261.31
2022-09-28T23:48:48.839Z,100260.69
2022-09-28T23:51:15.534Z,100251.25
2022-09-28T23:53:43.403Z,100249.56
2022-09-28T23:56:09.932Z,100252.38
2022-09-28T23:58:36.364Z,100244.47
